sensor_id;sensor_type;location;lat;lon;timestamp;pressure;altitude;pressure_sealevel;temperature;humidity
26112;BME280;13829;48.990;8.346;2022-11-24T00:00:50;99771.69;;;9.52;100.00
26112;BME280;13829;48.990;8.346;2022-11-24T00:03:18;99771.72;;;9.50;100.00
26112;BME280;13829;48.990;8.346;2022-11-24T00:05:46;99767.31;;;9.61;100.00
26112;BME280;13829;48.990;8.346;2022-11-24T00:08:13;99772.53;;;9.66;100.00
26112;BME280;13829;48.990;8.346;2022-11-24T00:10:40;99774.28;;;9.75;100.00
26112;BME280;13829;48.990;8.346;2022-11-24T00:13:07;99771.69;;;9.72;100.00
26112;BME280;13829;48.990;8.346;2022-11-24T00:15:34;99766.44;;;9.67;100.00
26112;BME280;13829;48.990;8.346;2022-11-24T00:18:01;99769.06;;;9.64;100.00
26112;BME280;13829;48.990;8.346;2022-11-24T00:20:28;99775.16;;;9.74;100.00
26112;BME280;13829;48.990;8.346;2022-11-24T00:22:56;99775.13;;;9.86;100.00
26112;BME280;13829;48.990;8.346;2022-11-24T00:25:23;99782.19;;;9.67;100.00
26112;BME280;13829;48.990;8.346;2022-11-24T00:27:51;99779.53;;;9.69;100.00
26112;BME280;13829;48.990;8.346;2022-11-24T00:30:18;99789.19;;;9.56;100.00
26112;BME280;13829;48.990;8.346;2022-11-24T00:32:45;99779.56;;;9.59;100.00
26112;BME280;13829;48.990;8.346;2022-11-24T00:35:12;99787.41;;;9.70;100.00
26112;BME280;13829;48.990;8.346;2022-11-24T00:37:39;99782.16;;;9.76;100.00
26112;BME280;13829;48.990;8.346;2022-11-24T00:40:08;99788.28;;;9.80;100.00
26112;BME280;13829;48.990;8.346;2022-11-24T00:42:35;99787.41;;;9.81;100.00
26112;BME280;13829;48.990;8.346;2022-11-24T00:45:03;99792.66;;;9.87;100.00
26112;BME280;13829;48.990;8.346;2022-11-24T00:47:30;99797.91;;;9.86;100.00
26112;BME280;13829;48.990;8.346;2022-11-24T00:49:57;99794.38;;;9.93;100.00
26112;BME280;13829;48.990;8.346;2022-11-24T00:52:24;99789.13;;;9.93;100.00
26112;BME280;13829;48.990;8.346;2022-11-24T00:54:51;99798.78;;;9.74;100.00
26112;BME280;13829;48.990;8.346;2022-11-24T00:57:19;99792.66;;;9.79;100.00
26112;BME280;13829;48.990;8.346;2022-11-24T00:59:46;99797.03;;;9.79;100.00
26112;BME280;13829;48.990;8.346;2022-11-24T01:02:13;99803.16;;;9.70;100.00
26112;BME280;13829;48.990;8.346;2022-11-24T01:04:40;99809.31;;;9.77;100.00
26112;BME280;13829;48.990;8.346;2022-11-24T01:07:07;99811.06;;;9.78;100.00
26112;BME280;13829;48.990;8.346;2022-11-24T01:09:34;99813.69;;;9.78;100.00
26112;BME280;13829;48.990;8.346;2022-11-24T01:12:02;99808.44;;;9.79;100.00
26112;BME280;13829;48.990;8.346;2022-11-24T01:14:31;99816.28;;;9.83;100.00
26112;BME280;13829;48.990;8.346;2022-11-24T01:16:58;99820.66;;;9.85;100.00
26112;BME280;13829;48.990;8.346;2022-11-24T01:19:25;99822.44;;;9.78;100.00
26112;BME280;13829;48.990;8.346;2022-11-24T01:21:52;99825.94;;;9.76;100.00
26112;BME280;13829;48.990;8.346;2022-11-24T01:24:20;99827.69;;;9.85;100.00
26112;BME280;13829;48.990;8.346;2022-11-24T01:26:46;99828.53;;;9.85;100.00
26112;BME280;13829;48.990;8.346;2022-11-24T01:29:15;99838.19;;;9.77;100.00
26112;BME280;13829;48.990;8.346;2022-11-24T01:31:43;99839.94;;;9.70;100.00
26112;BME280;13829;48.990;8.346;2022-11-24T01:34:10;99840.81;;;9.77;100.00
26112;BME280;13829;48.990;8.346;2022-11-24T01:36:38;99835.56;;;9.77;100.00
26112;BME280;13829;48.990;8.346;2022-11-24T01:39:05;99844.31;;;9.79;100.00
26112;BME280;13829;48.990;8.346;2022-11-24T01:41:33;99846.09;;;9.61;100.00
26112;BME280;13829;48.990;8.346;2022-11-24T01:44:19;99842.56;;;9.75;100.00
26112;BME280;13829;48.990;8.346;2022-11-24T01:46:52;99846.94;;;9.82;100.00
26112;BME280;13829;48.990;8.346;2022-11-24T01:49:26;99846.06;;;9.89;100.00
26112;BME280;13829;48.990;8.346;2022-11-24T01:52:04;99851.31;;;9.91;100.00
26112;BME280;13829;48.990;8.346;2022-11-24T01:54:36;99853.94;;;9.74;100.00
26112;BME280;13829;48.990;8.346;2022-11-24T01:57:12;99856.56;;;9.80;100.00
26112;BME280;13829;48.990;8.346;2022-11-24T01:59:43;99854.81;;;9.79;100.00
26112;BME280;13829;48.990;8.346;2022-11-24T02:02:14;99855.69;;;9.76;100.00
26112;BME280;13829;48.990;8.346;2022-11-24T02:04:41;99845.19;;;9.87;100.00
26112;BME280;13829;48.990;8.346;2022-11-24T02:07:11;99853.03;;;9.84;100.00
26112;BME280;13829;48.990;8.346;2022-11-24T02:09:44;99847.78;;;9.96;100.00
26112;BME280;13829;48.990;8.346;2022-11-24T02:12:12;99846.94;;;9.94;100.00
26112;BME280;13829;48.990;8.346;2022-11-24T02:14:41;99852.19;;;9.96;100.00
26112;BME280;13829;48.990;8.346;2022-11-24T02:17:08;99848.69;;;9.97;100.00
26112;BME280;13829;48.990;8.346;2022-11-24T02:19:48;99839.94;;;9.92;100.00
26112;BME280;13829;48.990;8.346;2022-11-24T02:22:25;99840.81;;;9.89;100.00
26112;BME280;13829;48.990;8.346;2022-11-24T02:25:00;99840.81;;;9.89;100.00
26112;BME280;13829;48.990;8.346;2022-11-24T02:27:30;99847.78;;;9.84;100.00
26112;BME280;13829;48.990;8.346;2022-11-24T02:29:57;99846.06;;;9.86;100.00
26112;BME280;13829;48.990;8.346;2022-11-24T02:32:24;99846.94;;;9.68;100.00
26112;BME280;13829;48.990;8.346;2022-11-24T02:34:59;99839.97;;;9.58;100.00
26112;BME280;13829;48.990;8.346;2022-11-24T02:37:26;99847.81;;;9.38;100.00
26112;BME280;13829;48.990;8.346;2022-11-24T02:39:53;99846.91;;;9.37;100.00
26112;BME280;13829;48.990;8.346;2022-11-24T02:42:21;99838.19;;;9.40;100.00
26112;BME280;13829;48.990;8.346;2022-11-24T02:44:56;99840.81;;;9.35;100.00
26112;BME280;13829;48.990;8.346;2022-11-24T02:47:24;99845.19;;;9.38;100.00
26112;BME280;13829;48.990;8.346;2022-11-24T02:49:51;99849.53;;;9.16;100.00
26112;BME280;13829;48.990;8.346;2022-11-24T02:52:18;99853.91;;;9.21;100.00
26112;BME280;13829;48.990;8.346;2022-11-24T02:54:45;99861.81;;;9.27;100.00
26112;BME280;13829;48.990;8.346;2022-11-24T02:57:12;99873.16;;;9.26;100.00
26112;BME280;13829;48.990;8.346;2022-11-24T02:59:39;99861.78;;;9.15;100.00
26112;BME280;13829;48.990;8.346;2022-11-24T03:02:07;99865.25;;;9.14;100.00
26112;BME280;13829;48.990;8.346;2022-11-24T03:04:35;99867.03;;;9.21;100.00
26112;BME280;13829;48.990;8.346;2022-11-24T03:07:02;99860.94;;;9.33;100.00
26112;BME280;13829;48.990;8.346;2022-11-24T03:09:29;99856.56;;;9.34;100.00
26112;BME280;13829;48.990;8.346;2022-11-24T03:11:56;99865.34;;;9.45;100.00
26112;BME280;13829;48.990;8.346;2022-11-24T03:14:23;99867.94;;;9.51;100.00
26112;BME280;13829;48.990;8.346;2022-11-24T03:16:50;99861.81;;;9.49;100.00
26112;BME280;13829;48.990;8.346;2022-11-24T03:19:18;99860.91;;;9.27;100.00
26112;BME280;13829;48.990;8.346;2022-11-24T03:21:45;99860.91;;;9.18;100.00
26112;BME280;13829;48.990;8.346;2022-11-24T03:24:12;99860.00;;;9.16;100.00
26112;BME280;13829;48.990;8.346;2022-11-24T03:26:39;99863.47;;;8.94;100.00
26112;BME280;13829;48.990;8.346;2022-11-24T03:29:06;99868.69;;;8.91;100.00
26112;BME280;13829;48.990;8.346;2022-11-24T03:31:34;99865.25;;;9.05;100.00
26112;BME280;13829;48.990;8.346;2022-11-24T03:34:00;99865.25;;;9.08;100.00
26112;BME280;13829;48.990;8.346;2022-11-24T03:36:29;99859.13;;;9.10;100.00
26112;BME280;13829;48.990;8.346;2022-11-24T03:38:56;99856.53;;;9.21;100.00
26112;BME280;13829;48.990;8.346;2022-11-24T03:41:23;99856.53;;;9.40;100.00
26112;BME280;13829;48.990;8.346;2022-11-24T03:43:50;99867.03;;;9.24;100.00
26112;BME280;13829;48.990;8.346;2022-11-24T03:46:16;99865.25;;;9.14;100.00
26112;BME280;13829;48.990;8.346;2022-11-24T03:48:43;99871.41;;;9.18;100.00
26112;BME280;13829;48.990;8.346;2022-11-24T03:51:10;99877.56;;;9.27;100.00
26112;BME280;13829;48.990;8.346;2022-11-24T03:53:39;99878.41;;;9.29;100.00
26112;BME280;13829;48.990;8.346;2022-11-24T03:56:06;99880.16;;;9.40;100.00
26112;BME280;13829;48.990;8.346;2022-11-24T03:58:33;99878.44;;;9.51;100.00
26112;BME280;13829;48.990;8.346;2022-11-24T04:01:00;99884.59;;;9.66;100.00
26112;BME280;13829;48.990;8.346;2022-11-24T04:03:28;99890.69;;;9.43;100.00
26112;BME280;13829;48.990;8.346;2022-11-24T04:05:55;99888.94;;;9.50;100.00
26112;BME280;13829;48.990;8.346;2022-11-24T04:08:22;99886.34;;;9.74;100.00
26112;BME280;13829;48.990;8.346;2022-11-24T04:10:52;99888.94;;;9.63;100.00
26112;BME280;13829;48.990;8.346;2022-11-24T04:13:23;99899.44;;;9.65;100.00
26112;BME280;13829;48.990;8.346;2022-11-24T04:15:49;99907.34;;;9.70;100.00
26112;BME280;13829;48.990;8.346;2022-11-24T04:18:17;99905.59;;;9.72;100.00
26112;BME280;13829;48.990;8.346;2022-11-24T04:20:44;99910.84;;;9.66;100.00
26112;BME280;13829;48.990;8.346;2022-11-24T04:23:11;99902.97;;;9.79;100.00
26112;BME280;13829;48.990;8.346;2022-11-24T04:25:38;99904.72;;;9.76;100.00
26112;BME280;13829;48.990;8.346;2022-11-24T04:28:07;99912.56;;;9.57;100.00
26112;BME280;13829;48.990;8.346;2022-11-24T04:30:34;99908.22;;;9.67;100.00
26112;BME280;13829;48.990;8.346;2022-11-24T04:33:03;99910.84;;;9.73;100.00
26112;BME280;13829;48.990;8.346;2022-11-24T04:35:30;99910.84;;;9.78;100.00
26112;BME280;13829;48.990;8.346;2022-11-24T04:38:00;99907.31;;;9.79;100.00
26112;BME280;13829;48.990;8.346;2022-11-24T04:40:27;99912.56;;;9.57;100.00
26112;BME280;13829;48.990;8.346;2022-11-24T04:42:55;99909.06;;;9.52;100.00
26112;BME280;13829;48.990;8.346;2022-11-24T04:45:23;99901.22;;;9.63;100.00
26112;BME280;13829;48.990;8.346;2022-11-24T04:47:50;99909.06;;;9.58;100.00
26112;BME280;13829;48.990;8.346;2022-11-24T04:50:17;99909.94;;;9.56;100.00
26112;BME280;13829;48.990;8.346;2022-11-24T04:52:46;99906.44;;;9.68;100.00
26112;BME280;13829;48.990;8.346;2022-11-24T04:55:13;99911.72;;;9.65;100.00
26112;BME280;13829;48.990;8.346;2022-11-24T04:57:40;99918.69;;;9.70;100.00
26112;BME280;13829;48.990;8.346;2022-11-24T05:00:09;99924.84;;;9.65;100.00
26112;BME280;13829;48.990;8.346;2022-11-24T05:02:37;99913.47;;;9.72;100.00
26112;BME280;13829;48.990;8.346;2022-11-24T05:05:06;99921.34;;;9.84;100.00
26112;BME280;13829;48.990;8.346;2022-11-24T05:07:33;99935.38;;;9.89;100.00
26112;BME280;13829;48.990;8.346;2022-11-24T05:10:00;99940.63;;;9.83;100.00
26112;BME280;13829;48.990;8.346;2022-11-24T05:12:53;99934.47;;;9.83;100.00
26112;BME280;13829;48.990;8.346;2022-11-24T05:15:21;99936.22;;;9.67;100.00
26112;BME280;13829;48.990;8.346;2022-11-24T05:17:50;99930.09;;;9.74;100.00
26112;BME280;13829;48.990;8.346;2022-11-24T05:20:18;99936.22;;;9.74;100.00
26112;BME280;13829;48.990;8.346;2022-11-24T05:22:44;99937.09;;;9.59;100.00
26112;BME280;13829;48.990;8.346;2022-11-24T05:25:12;99939.69;;;9.70;100.00
26112;BME280;13829;48.990;8.346;2022-11-24T05:27:39;99945.88;;;9.75;100.00
26112;BME280;13829;48.990;8.346;2022-11-24T05:30:08;99957.22;;;9.77;100.00
26112;BME280;13829;48.990;8.346;2022-11-24T05:32:35;99958.97;;;9.80;100.00
26112;BME280;13829;48.990;8.346;2022-11-24T05:35:05;99939.72;;;9.84;100.00
26112;BME280;13829;48.990;8.346;2022-11-24T05:37:34;99946.72;;;9.68;100.00
26112;BME280;13829;48.990;8.346;2022-11-24T05:40:01;99949.34;;;9.77;100.00
26112;BME280;13829;48.990;8.346;2022-11-24T05:42:28;99948.50;;;9.75;100.00
26112;BME280;13829;48.990;8.346;2022-11-24T05:45:11;99948.47;;;9.68;100.00
26112;BME280;13829;48.990;8.346;2022-11-24T05:47:39;99952.81;;;9.53;100.00
26112;BME280;13829;48.990;8.346;2022-11-24T05:50:11;99967.72;;;9.62;100.00
26112;BME280;13829;48.990;8.346;2022-11-24T05:52:38;99965.09;;;9.67;100.00
26112;BME280;13829;48.990;8.346;2022-11-24T05:55:07;99972.97;;;9.71;100.00
26112;BME280;13829;48.990;8.346;2022-11-24T05:57:35;99977.34;;;9.68;100.00
26112;BME280;13829;48.990;8.346;2022-11-24T06:00:04;99972.09;;;9.61;100.00
26112;BME280;13829;48.990;8.346;2022-11-24T06:02:31;99979.97;;;9.65;100.00
26112;BME280;13829;48.990;8.346;2022-11-24T06:04:58;99990.47;;;9.58;100.00
26112;BME280;13829;48.990;8.346;2022-11-24T06:07:26;99987.84;;;9.61;100.00
26112;BME280;13829;48.990;8.346;2022-11-24T06:09:53;99993.06;;;9.49;100.00
26112;BME280;13829;48.990;8.346;2022-11-24T06:12:20;99996.59;;;9.54;100.00
26112;BME280;13829;48.990;8.346;2022-11-24T06:14:47;99997.44;;;9.52;100.00
26112;BME280;13829;48.990;8.346;2022-11-24T06:17:14;100015.84;;;9.61;100.00
26112;BME280;13829;48.990;8.346;2022-11-24T06:19:41;100017.63;;;9.67;100.00
26112;BME280;13829;48.990;8.346;2022-11-24T06:22:11;100020.22;;;9.54;100.00
26112;BME280;13829;48.990;8.346;2022-11-24T06:24:39;100014.94;;;9.57;100.00
26112;BME280;13829;48.990;8.346;2022-11-24T06:27:06;100029.84;;;9.57;100.00
26112;BME280;13829;48.990;8.346;2022-11-24T06:29:33;100033.34;;;9.59;100.00
26112;BME280;13829;48.990;8.346;2022-11-24T06:32:00;100028.09;;;9.63;100.00
26112;BME280;13829;48.990;8.346;2022-11-24T06:34:26;100035.97;;;9.54;100.00
26112;BME280;13829;48.990;8.346;2022-11-24T06:36:53;100043.84;;;9.54;100.00
26112;BME280;13829;48.990;8.346;2022-11-24T06:39:20;100040.31;;;9.49;100.00
26112;BME280;13829;48.990;8.346;2022-11-24T06:41:50;100049.94;;;9.44;100.00
26112;BME280;13829;48.990;8.346;2022-11-24T06:44:17;100049.06;;;9.48;100.00
26112;BME280;13829;48.990;8.346;2022-11-24T06:46:44;100050.75;;;9.37;100.00
26112;BME280;13829;48.990;8.346;2022-11-24T06:49:11;100054.31;;;9.45;100.00
26112;BME280;13829;48.990;8.346;2022-11-24T06:51:38;100052.53;;;9.47;100.00
26112;BME280;13829;48.990;8.346;2022-11-24T06:54:06;100059.56;;;9.48;100.00
26112;BME280;13829;48.990;8.346;2022-11-24T06:56:34;100054.31;;;9.51;100.00
26112;BME280;13829;48.990;8.346;2022-11-24T06:59:02;100052.53;;;9.38;100.00
26112;BME280;13829;48.990;8.346;2022-11-24T07:01:29;100057.81;;;9.44;100.00
26112;BME280;13829;48.990;8.346;2022-11-24T07:03:57;100061.25;;;9.37;100.00
26112;BME280;13829;48.990;8.346;2022-11-24T07:06:25;100058.59;;;9.29;100.00
26112;BME280;13829;48.990;8.346;2022-11-24T07:08:53;100062.16;;;9.40;100.00
26112;BME280;13829;48.990;8.346;2022-11-24T07:11:22;100058.63;;;9.38;100.00
26112;BME280;13829;48.990;8.346;2022-11-24T07:13:50;100061.28;;;9.43;100.00
26112;BME280;13829;48.990;8.346;2022-11-24T07:16:21;100056.84;;;9.26;100.00
26112;BME280;13829;48.990;8.346;2022-11-24T07:18:50;100080.47;;;9.29;100.00
26112;BME280;13829;48.990;8.346;2022-11-24T07:21:20;100063.00;;;9.28;100.00
26112;BME280;13829;48.990;8.346;2022-11-24T07:23:48;100060.38;;;9.28;100.00
26112;BME280;13829;48.990;8.346;2022-11-24T07:26:15;100077.91;;;9.39;100.00
26112;BME280;13829;48.990;8.346;2022-11-24T07:28:43;100080.50;;;9.36;100.00
26112;BME280;13829;48.990;8.346;2022-11-24T07:31:12;100083.13;;;9.34;100.00
26112;BME280;13829;48.990;8.346;2022-11-24T07:33:41;100084.00;;;9.39;100.00
26112;BME280;13829;48.990;8.346;2022-11-24T07:36:08;100085.75;;;9.36;100.00
26112;BME280;13829;48.990;8.346;2022-11-24T07:38:35;100105.00;;;9.41;100.00
26112;BME280;13829;48.990;8.346;2022-11-24T07:41:04;100116.38;;;9.35;100.00
26112;BME280;13829;48.990;8.346;2022-11-24T07:43:32;100103.25;;;9.34;100.00
26112;BME280;13829;48.990;8.346;2022-11-24T07:46:01;100121.66;;;9.41;100.00
26112;BME280;13829;48.990;8.346;2022-11-24T07:48:28;100126.00;;;9.41;100.00
26112;BME280;13829;48.990;8.346;2022-11-24T07:50:58;100132.94;;;9.28;100.00
26112;BME280;13829;48.990;8.346;2022-11-24T07:53:25;100138.09;;;9.11;100.00
26112;BME280;13829;48.990;8.346;2022-11-24T07:55:53;100136.47;;;9.28;100.00
26112;BME280;13829;48.990;8.346;2022-11-24T07:58:21;100141.63;;;9.14;100.00
26112;BME280;13829;48.990;8.346;2022-11-24T08:00:48;100144.25;;;9.21;100.00
26112;BME280;13829;48.990;8.346;2022-11-24T08:03:16;100144.31;;;9.25;100.00
26112;BME280;13829;48.990;8.346;2022-11-24T08:05:43;100153.94;;;9.26;100.00
26112;BME280;13829;48.990;8.346;2022-11-24T08:08:20;100159.16;;;9.23;100.00
26112;BME280;13829;48.990;8.346;2022-11-24T08:10:47;100156.56;;;9.29;100.00
26112;BME280;13829;48.990;8.346;2022-11-24T08:13:13;100158.38;;;9.37;100.00
26112;BME280;13829;48.990;8.346;2022-11-24T08:15:40;100164.56;;;9.45;100.00
26112;BME280;13829;48.990;8.346;2022-11-24T08:18:08;100166.31;;;9.49;100.00
26112;BME280;13829;48.990;8.346;2022-11-24T08:20:36;100170.63;;;9.36;100.00
26112;BME280;13829;48.990;8.346;2022-11-24T08:23:03;100172.47;;;9.57;100.00
26112;BME280;13829;48.990;8.346;2022-11-24T08:25:32;100180.34;;;9.53;100.00
26112;BME280;13829;48.990;8.346;2022-11-24T08:28:00;100184.69;;;9.51;100.00
26112;BME280;13829;48.990;8.346;2022-11-24T08:30:28;100192.53;;;9.46;100.00
26112;BME280;13829;48.990;8.346;2022-11-24T08:32:57;100187.38;;;9.58;100.00
26112;BME280;13829;48.990;8.346;2022-11-24T08:35:24;100192.56;;;9.49;100.00
26112;BME280;13829;48.990;8.346;2022-11-24T08:37:51;100193.47;;;9.57;100.00
26112;BME280;13829;48.990;8.346;2022-11-24T08:40:19;100188.34;;;9.77;100.00
26112;BME280;13829;48.990;8.346;2022-11-24T08:42:47;100195.34;;;9.77;100.00
26112;BME280;13829;48.990;8.346;2022-11-24T08:45:14;100194.41;;;9.67;100.00
26112;BME280;13829;48.990;8.346;2022-11-24T08:47:41;100201.50;;;9.82;100.00
26112;BME280;13829;48.990;8.346;2022-11-24T08:50:08;100211.13;;;9.83;100.00
26112;BME280;13829;48.990;8.346;2022-11-24T08:52:35;100214.69;;;9.94;100.00
26112;BME280;13829;48.990;8.346;2022-11-24T08:55:03;100212.88;;;9.79;100.00
26112;BME280;13829;48.990;8.346;2022-11-24T08:57:30;100212.03;;;9.87;100.00
26112;BME280;13829;48.990;8.346;2022-11-24T08:59:58;100225.16;;;9.90;100.00
26112;BME280;13829;48.990;8.346;2022-11-24T09:02:25;100231.25;;;9.81;100.00
26112;BME280;13829;48.990;8.346;2022-11-24T09:04:52;100236.44;;;9.70;100.00
26112;BME280;13829;48.990;8.346;2022-11-24T09:07:19;100235.53;;;9.63;100.00
26112;BME280;13829;48.990;8.346;2022-11-24T09:09:46;100239.06;;;9.64;100.00
26112;BME280;13829;48.990;8.346;2022-11-24T09:12:13;100248.69;;;9.71;100.00
26112;BME280;13829;48.990;8.346;2022-11-24T09:14:39;100249.63;;;9.83;100.00
26112;BME280;13829;48.990;8.346;2022-11-24T09:17:08;100264.53;;;9.82;100.00
26112;BME280;13829;48.990;8.346;2022-11-24T09:19:35;100267.19;;;9.87;100.00
26112;BME280;13829;48.990;8.346;2022-11-24T09:22:02;100273.19;;;9.69;100.00
26112;BME280;13829;48.990;8.346;2022-11-24T09:24:29;100268.03;;;9.81;100.00
26112;BME280;13829;48.990;8.346;2022-11-24T09:26:56;100264.44;;;9.67;100.00
26112;BME280;13829;48.990;8.346;2022-11-24T09:29:23;100280.25;;;9.76;100.00
26112;BME280;13829;48.990;8.346;2022-11-24T09:31:50;100270.56;;;9.67;100.00
26112;BME280;13829;48.990;8.346;2022-11-24T09:34:18;100275.91;;;9.78;100.00
26112;BME280;13829;48.990;8.346;2022-11-24T09:36:45;100273.28;;;9.84;100.00
26112;BME280;13829;48.990;8.346;2022-11-24T09:39:12;100288.16;;;9.81;100.00
26112;BME280;13829;48.990;8.346;2022-11-24T09:41:53;100295.97;;;9.67;100.00
26112;BME280;13829;48.990;8.346;2022-11-24T09:44:46;100306.41;;;9.63;100.00
26112;BME280;13829;48.990;8.346;2022-11-24T09:47:28;100301.13;;;9.57;100.00
26112;BME280;13829;48.990;8.346;2022-11-24T09:50:02;100302.03;;;9.61;100.00
26112;BME280;13829;48.990;8.346;2022-11-24T09:52:39;100292.47;;;9.71;100.00
26112;BME280;13829;48.990;8.346;2022-11-24T09:55:24;100295.09;;;9.72;100.00
26112;BME280;13829;48.990;8.346;2022-11-24T09:58:05;100292.38;;;9.58;100.00
26112;BME280;13829;48.990;8.346;2022-11-24T10:00:37;100292.28;;;9.46;100.00
26112;BME280;13829;48.990;8.346;2022-11-24T10:03:04;100294.19;;;9.66;100.00
26112;BME280;13829;48.990;8.346;2022-11-24T10:05:35;100300.41;;;9.75;100.00
26112;BME280;13829;48.990;8.346;2022-11-24T10:08:21;100290.88;;;9.98;100.00
26112;BME280;13829;48.990;8.346;2022-11-24T10:10:56;100297.94;;;10.08;100.00
26112;BME280;13829;48.990;8.346;2022-11-24T10:13:48;100299.63;;;9.98;100.00
26112;BME280;13829;48.990;8.346;2022-11-24T10:16:37;100296.09;;;9.88;100.00
26112;BME280;13829;48.990;8.346;2022-11-24T10:19:24;100298.75;;;9.94;100.00
26112;BME280;13829;48.990;8.346;2022-11-24T10:22:17;100294.50;;;10.24;100.00
26112;BME280;13829;48.990;8.346;2022-11-24T10:25:10;100293.69;;;10.33;100.00
26112;BME280;13829;48.990;8.346;2022-11-24T10:27:42;100295.53;;;10.47;100.00
26112;BME280;13829;48.990;8.346;2022-11-24T10:30:16;100297.31;;;10.60;100.00
26112;BME280;13829;48.990;8.346;2022-11-24T10:32:55;100295.59;;;10.67;100.00
26112;BME280;13829;48.990;8.346;2022-11-24T10:35:30;100293.78;;;10.53;100.00
26112;BME280;13829;48.990;8.346;2022-11-24T10:38:15;100309.53;;;10.42;100.00
26112;BME280;13829;48.990;8.346;2022-11-24T10:40:55;100312.16;;;10.44;100.00
26112;BME280;13829;48.990;8.346;2022-11-24T10:43:26;100300.84;;;10.67;100.00
26112;BME280;13829;48.990;8.346;2022-11-24T10:45:54;100303.53;;;10.82;100.00
26112;BME280;13829;48.990;8.346;2022-11-24T10:48:26;100304.44;;;11.01;100.00
26112;BME280;13829;48.990;8.346;2022-11-24T10:51:10;100297.41;;;11.09;100.00
26112;BME280;13829;48.990;8.346;2022-11-24T10:53:44;100303.56;;;11.07;100.00
26112;BME280;13829;48.990;8.346;2022-11-24T10:56:12;100294.78;;;11.14;100.00
26112;BME280;13829;48.990;8.346;2022-11-24T10:58:39;100296.56;;;11.15;100.00
26112;BME280;13829;48.990;8.346;2022-11-24T11:01:28;100296.53;;;11.09;100.00
26112;BME280;13829;48.990;8.346;2022-11-24T11:03:59;100302.69;;;11.09;100.00
26112;BME280;13829;48.990;8.346;2022-11-24T11:06:28;100298.31;;;11.22;100.00
26112;BME280;13829;48.990;8.346;2022-11-24T11:09:17;100300.06;;;11.20;100.00
26112;BME280;13829;48.990;8.346;2022-11-24T11:11:46;100286.91;;;11.03;100.00
26112;BME280;13829;48.990;8.346;2022-11-24T11:14:29;100293.03;;;11.01;100.00
26112;BME280;13829;48.990;8.346;2022-11-24T11:16:57;100291.28;;;11.00;100.00
26112;BME280;13829;48.990;8.346;2022-11-24T11:19:35;100293.91;;;10.92;100.00
26112;BME280;13829;48.990;8.346;2022-11-24T11:22:05;100297.44;;;11.03;100.00
26112;BME280;13829;48.990;8.346;2022-11-24T11:24:43;100300.94;;;11.10;100.00
26112;BME280;13829;48.990;8.346;2022-11-24T11:27:17;100300.94;;;11.01;100.00
26112;BME280;13829;48.990;8.346;2022-11-24T11:29:45;100301.81;;;11.09;100.00
26112;BME280;13829;48.990;8.346;2022-11-24T11:32:18;100301.81;;;11.09;100.00
26112;BME280;13829;48.990;8.346;2022-11-24T11:34:48;100308.88;;;11.29;100.00
26112;BME280;13829;48.990;8.346;2022-11-24T11:37:17;100308.84;;;11.41;100.00
26112;BME280;13829;48.990;8.346;2022-11-24T11:39:48;100307.09;;;11.43;100.00
26112;BME280;13829;48.990;8.346;2022-11-24T11:42:22;100308.84;;;11.41;100.00
26112;BME280;13829;48.990;8.346;2022-11-24T11:44:54;100308.84;;;11.35;100.00
26112;BME280;13829;48.990;8.346;2022-11-24T11:47:30;100304.44;;;11.38;100.00
26112;BME280;13829;48.990;8.346;2022-11-24T11:49:59;100303.56;;;11.47;100.00
26112;BME280;13829;48.990;8.346;2022-11-24T11:52:49;100301.84;;;11.49;100.00
26112;BME280;13829;48.990;8.346;2022-11-24T11:55:43;100295.66;;;11.63;98.62
26112;BME280;13829;48.990;8.346;2022-11-24T12:01:40;100297.44;;;11.48;97.20
26112;BME280;13829;48.990;8.346;2022-11-24T12:04:36;100314.13;;;11.50;97.16
26112;BME280;13829;48.990;8.346;2022-11-24T12:07:30;100301.84;;;11.35;97.46
26112;BME280;13829;48.990;8.346;2022-11-24T12:10:13;100310.59;;;11.42;98.98
26112;BME280;13829;48.990;8.346;2022-11-24T12:13:02;100306.22;;;11.41;99.76
26112;BME280;13829;48.990;8.346;2022-11-24T12:15:39;100318.53;;;11.45;99.50
26112;BME280;13829;48.990;8.346;2022-11-24T12:18:24;100316.75;;;11.47;98.97
26112;BME280;13829;48.990;8.346;2022-11-24T12:21:05;100315.88;;;11.43;99.42
26112;BME280;13829;48.990;8.346;2022-11-24T12:23:50;100317.59;;;11.40;98.43
26112;BME280;13829;48.990;8.346;2022-11-24T12:26:34;100322.00;;;11.35;98.20
26112;BME280;13829;48.990;8.346;2022-11-24T12:35:27;100322.91;;;11.43;97.90
26112;BME280;13829;48.990;8.346;2022-11-24T12:38:09;100322.03;;;11.52;97.91
26112;BME280;13829;48.990;8.346;2022-11-24T12:41:08;100326.41;;;11.33;97.18
26112;BME280;13829;48.990;8.346;2022-11-24T12:43:49;100322.88;;;11.52;93.63
26112;BME280;13829;48.990;8.346;2022-11-24T12:46:27;100321.13;;;11.48;91.23
26112;BME280;13829;48.990;8.346;2022-11-24T12:49:10;100319.38;;;11.41;92.57
26112;BME280;13829;48.990;8.346;2022-11-24T12:51:45;100324.66;;;11.50;93.47
26112;BME280;13829;48.990;8.346;2022-11-24T12:54:18;100325.53;;;11.48;92.42
26112;BME280;13829;48.990;8.346;2022-11-24T12:56:52;100327.28;;;11.50;92.11
26112;BME280;13829;48.990;8.346;2022-11-24T12:59:36;100332.56;;;11.56;88.22
26112;BME280;13829;48.990;8.346;2022-11-24T13:02:22;100331.66;;;11.70;88.61
26112;BME280;13829;48.990;8.346;2022-11-24T13:05:00;100334.28;;;11.85;86.73
26112;BME280;13829;48.990;8.346;2022-11-24T13:07:41;100329.91;;;11.97;86.25
26112;BME280;13829;48.990;8.346;2022-11-24T13:10:32;100331.63;;;11.90;85.05
26112;BME280;13829;48.990;8.346;2022-11-24T13:13:01;100321.09;;;11.90;83.67
26112;BME280;13829;48.990;8.346;2022-11-24T13:15:31;100329.00;;;11.90;85.29
26112;BME280;13829;48.990;8.346;2022-11-24T13:18:00;100332.56;;;11.66;86.35
26112;BME280;13829;48.990;8.346;2022-11-24T13:20:32;100335.16;;;11.63;88.29